Time;durP1;ratioP1;P1;durP2;ratioP2;P2;SDS_P1;SDS_P2;PMS_P1;PMS_P2;Temp;Humidity;BMP_temperature;BMP_pressure;BME280_temperature;BME280_humidity;BME280_pressure;Samples;Min_cycle;Max_cycle;Signal;HPM_P1;HPM_P2
2021/06/13 00:00:13;;;;;;;9.05;3.38;;;16.60;66.70;;;;;;5030810;28;20051;-76
2021/06/13 00:02:39;;;;;;;10.70;3.80;;;16.60;66.80;;;;;;5032527;28;20024;-76
2021/06/13 00:05:10;;;;;;;8.65;3.20;;;16.60;66.80;;;;;;5032243;28;20466;-75
2021/06/13 00:07:37;;;;;;;8.73;3.15;;;16.60;66.90;;;;;;5031083;28;20383;-75
2021/06/13 00:10:04;;;;;;;6.60;2.95;;;16.60;66.90;;;;;;5032012;28;20022;-77
2021/06/13 00:12:30;;;;;;;7.75;3.40;;;16.50;66.90;;;;;;5031092;28;20381;-76
2021/06/13 00:14:55;;;;;;;9.90;3.33;;;16.50;67.00;;;;;;5031865;28;20029;-77
2021/06/13 00:17:21;;;;;;;10.52;3.05;;;16.50;67.10;;;;;;5031345;28;20425;-75
2021/06/13 00:19:47;;;;;;;7.00;3.53;;;16.50;67.20;;;;;;5031661;28;20029;-77
2021/06/13 00:22:13;;;;;;;9.55;3.75;;;16.40;67.40;;;;;;5031562;28;20424;-75
2021/06/13 00:24:38;;;;;;;5.10;3.15;;;16.40;67.50;;;;;;5030500;28;20029;-76
2021/06/13 00:27:04;;;;;;;8.10;3.28;;;16.40;67.70;;;;;;5030584;28;20021;-76
2021/06/13 00:29:30;;;;;;;7.35;3.55;;;16.30;67.70;;;;;;5029889;28;20104;-76
2021/06/13 00:31:56;;;;;;;9.00;3.63;;;16.30;67.80;;;;;;5031474;28;20485;-76
2021/06/13 00:34:24;;;;;;;13.13;3.58;;;16.30;67.90;;;;;;5029779;28;20034;-76
2021/06/13 00:36:52;;;;;;;8.80;3.85;;;16.30;67.90;;;;;;5031712;28;20026;-75
2021/06/13 00:39:18;;;;;;;9.10;3.40;;;16.30;68.00;;;;;;5031057;28;20091;-76
2021/06/13 00:41:44;;;;;;;9.05;3.53;;;16.30;68.10;;;;;;5031405;28;20030;-75
2021/06/13 00:44:09;;;;;;;7.43;3.97;;;16.30;68.20;;;;;;5031074;28;20362;-77
2021/06/13 00:46:35;;;;;;;6.93;3.38;;;16.20;68.20;;;;;;5031400;28;20061;-76
2021/06/13 00:49:01;;;;;;;11.18;4.20;;;16.30;68.40;;;;;;5031573;28;20029;-75
2021/06/13 00:51:27;;;;;;;8.02;4.15;;;16.30;68.50;;;;;;5029686;28;20025;-75
2021/06/13 00:53:53;;;;;;;12.52;3.97;;;16.40;68.30;;;;;;5031278;28;20033;-76
2021/06/13 00:56:18;;;;;;;11.00;3.67;;;16.40;68.40;;;;;;5031056;28;20037;-76
2021/06/13 00:58:45;;;;;;;10.52;3.53;;;16.40;68.40;;;;;;5031437;28;20387;-76
2021/06/13 01:01:11;;;;;;;8.07;3.60;;;16.40;68.40;;;;;;5029664;28;20033;-76
2021/06/13 01:03:36;;;;;;;11.02;3.60;;;16.50;68.40;;;;;;5030228;28;20107;-76
2021/06/13 01:06:02;;;;;;;9.23;3.20;;;16.40;68.30;;;;;;5031481;28;20072;-76
2021/06/13 01:08:46;;;;;;;10.57;4.35;;;16.50;68.30;;;;;;5030956;28;20028;-76
2021/06/13 01:11:44;;;;;;;10.73;3.78;;;16.40;68.60;;;;;;5031558;28;20014;-77
2021/06/13 01:14:57;;;;;;;10.80;3.90;;;16.40;68.70;;;;;;5035268;28;20025;-76
2021/06/13 01:17:43;;;;;;;9.65;3.90;;;16.30;68.80;;;;;;5012547;28;20030;-75
2021/06/13 01:20:17;;;;;;;10.70;4.32;;;16.30;68.80;;;;;;5034962;28;20053;-76
2021/06/13 01:23:24;;;;;;;11.82;4.18;;;16.30;68.90;;;;;;5035047;28;20036;-75
2021/06/13 01:26:22;;;;;;;9.38;3.97;;;16.30;68.90;;;;;;5033816;28;20026;-75
2021/06/13 01:29:11;;;;;;;11.65;4.47;;;16.20;68.90;;;;;;5034964;28;20036;-76
2021/06/13 01:31:47;;;;;;;9.80;4.13;;;16.30;69.10;;;;;;5034859;28;20075;-76
2021/06/13 01:34:17;;;;;;;10.38;4.43;;;16.20;69.10;;;;;;5034072;28;20071;-76
2021/06/13 01:36:46;;;;;;;10.45;4.25;;;16.20;69.10;;;;;;5034636;28;20036;-76
2021/06/13 01:39:16;;;;;;;9.40;3.75;;;16.30;69.40;;;;;;5033179;28;20083;-75
2021/06/13 01:41:45;;;;;;;10.65;4.13;;;16.20;69.40;;;;;;5032907;28;20025;-75
2021/06/13 01:44:11;;;;;;;8.15;4.07;;;16.20;69.50;;;;;;5034611;28;20033;-76
2021/06/13 01:46:39;;;;;;;7.72;3.42;;;16.20;69.70;;;;;;5033951;28;20416;-76
2021/06/13 01:49:06;;;;;;;9.63;3.88;;;16.10;69.70;;;;;;5034563;28;20022;-75
2021/06/13 01:51:32;;;;;;;17.67;4.40;;;16.10;69.90;;;;;;5032599;28;20029;-75
2021/06/13 01:54:02;;;;;;;12.15;4.50;;;16.10;70.10;;;;;;5034731;28;20062;-75
2021/06/13 01:56:30;;;;;;;11.65;3.97;;;16.10;70.10;;;;;;5033611;28;20064;-75
2021/06/13 01:58:57;;;;;;;7.28;3.45;;;16.10;70.10;;;;;;5034551;28;20505;-75
2021/06/13 02:01:26;;;;;;;9.15;3.83;;;16.10;70.10;;;;;;5033751;28;20025;-75
2021/06/13 02:03:55;;;;;;;15.75;5.13;;;16.00;70.20;;;;;;5034298;28;20021;-75
2021/06/13 02:06:25;;;;;;;11.27;4.15;;;16.00;70.40;;;;;;5033587;28;20474;-75
2021/06/13 02:08:52;;;;;;;10.73;4.47;;;16.00;70.60;;;;;;5034273;28;20056;-77
2021/06/13 02:11:19;;;;;;;9.25;3.95;;;16.00;70.60;;;;;;5033470;28;20037;-76
2021/06/13 02:13:47;;;;;;;10.70;4.60;;;16.00;70.70;;;;;;5032788;28;20523;-75
2021/06/13 02:16:16;;;;;;;7.97;3.90;;;16.00;70.80;;;;;;5034314;28;20064;-76
2021/06/13 02:18:44;;;;;;;9.98;3.85;;;16.00;70.90;;;;;;5033927;28;20029;-76
2021/06/13 02:21:12;;;;;;;10.45;3.90;;;16.00;70.90;;;;;;5032625;28;20013;-76
2021/06/13 02:23:39;;;;;;;12.00;4.05;;;16.00;70.90;;;;;;5030427;28;20029;-76
2021/06/13 02:26:05;;;;;;;7.40;3.60;;;16.00;71.00;;;;;;5033976;28;20082;-76
2021/06/13 02:28:37;;;;;;;10.43;3.78;;;16.00;71.00;;;;;;5031988;28;20381;-76
2021/06/13 02:31:06;;;;;;;8.73;4.20;;;16.00;71.10;;;;;;5033874;28;20100;-75
2021/06/13 02:33:33;;;;;;;6.68;3.42;;;15.90;71.20;;;;;;5033230;28;20466;-76
2021/06/13 02:36:00;;;;;;;6.68;3.65;;;15.90;71.30;;;;;;5032269;28;20481;-75
2021/06/13 02:38:26;;;;;;;10.75;3.92;;;15.80;71.40;;;;;;5033191;28;20049;-77
2021/06/13 02:40:53;;;;;;;8.23;3.65;;;15.80;71.50;;;;;;5031817;28;20077;-76
2021/06/13 02:43:20;;;;;;;8.25;3.55;;;15.80;71.60;;;;;;5031571;28;20461;-77
2021/06/13 02:45:45;;;;;;;10.48;4.00;;;15.80;71.70;;;;;;5033478;28;20025;-75
2021/06/13 02:48:11;;;;;;;10.68;3.75;;;15.80;71.70;;;;;;5032272;28;20397;-75
2021/06/13 02:50:37;;;;;;;11.18;3.72;;;15.80;71.80;;;;;;5031443;28;20370;-75
2021/06/13 02:53:12;;;;;;;8.15;3.65;;;15.70;71.90;;;;;;5033027;28;20462;-76
2021/06/13 02:55:52;;;;;;;9.15;3.45;;;15.70;72.00;;;;;;5032630;28;20326;-75
2021/06/13 02:58:41;;;;;;;7.13;3.00;;;15.70;72.10;;;;;;5032090;28;20112;-76
2021/06/13 03:01:15;;;;;;;7.20;3.30;;;15.70;72.30;;;;;;5033283;28;20024;-75
2021/06/13 03:03:43;;;;;;;6.10;3.17;;;15.60;72.20;;;;;;5031424;28;20432;-76
2021/06/13 03:06:16;;;;;;;10.15;3.58;;;15.60;72.30;;;;;;5033513;28;20028;-76
2021/06/13 03:08:42;;;;;;;8.95;3.33;;;15.60;72.30;;;;;;5031119;28;20367;-75
2021/06/13 03:11:09;;;;;;;8.02;3.30;;;15.60;72.30;;;;;;5033093;28;20033;-76
2021/06/13 03:13:35;;;;;;;12.25;3.35;;;15.60;72.50;;;;;;5031052;28;20025;-76
2021/06/13 03:16:02;;;;;;;10.50;3.67;;;15.60;72.60;;;;;;5031556;28;20061;-76
2021/06/13 03:18:30;;;;;;;12.45;4.05;;;15.70;72.70;;;;;;5032221;28;20488;-76
2021/06/13 03:20:57;;;;;;;10.95;3.58;;;15.70;72.70;;;;;;5031883;28;20026;-76
2021/06/13 03:23:25;;;;;;;9.90;3.97;;;15.70;72.60;;;;;;5032332;28;20031;-76
2021/06/13 03:25:52;;;;;;;7.53;3.63;;;15.70;72.60;;;;;;5032787;28;20025;-76
2021/06/13 03:28:19;;;;;;;12.60;4.13;;;15.70;72.60;;;;;;5031435;28;20045;-75
2021/06/13 03:30:45;;;;;;;11.98;4.03;;;15.70;72.70;;;;;;5030820;28;20025;-77
2021/06/13 03:33:12;;;;;;;8.93;3.67;;;15.60;72.70;;;;;;5032668;28;20017;-77
2021/06/13 03:35:39;;;;;;;10.77;4.70;;;15.60;73.50;;;;;;5030292;28;20037;-76
2021/06/13 03:38:05;;;;;;;6.50;3.47;;;15.60;72.90;;;;;;5031259;28;20032;-75
2021/06/13 03:40:31;;;;;;;11.38;3.88;;;15.50;72.90;;;;;;5030482;28;20045;-75
2021/06/13 03:42:58;;;;;;;10.90;3.92;;;15.50;72.90;;;;;;5032650;28;20021;-76
2021/06/13 03:45:25;;;;;;;7.93;3.88;;;15.50;73.10;;;;;;5031787;28;20057;-75
2021/06/13 03:47:52;;;;;;;12.75;4.28;;;15.50;73.10;;;;;;5032348;28;20025;-75
2021/06/13 03:50:19;;;;;;;11.43;3.60;;;15.50;73.10;;;;;;5031013;28;20395;-76
2021/06/13 03:52:46;;;;;;;12.35;4.30;;;15.50;73.10;;;;;;5030451;28;20028;-76
2021/06/13 03:55:12;;;;;;;11.23;3.70;;;15.60;73.40;;;;;;5030913;28;20026;-75
2021/06/13 03:57:45;;;;;;;8.27;3.63;;;15.50;73.40;;;;;;5030348;28;20107;-75
2021/06/13 04:00:12;;;;;;;11.63;4.30;;;15.60;73.50;;;;;;5030904;28;20457;-75
2021/06/13 04:02:42;;;;;;;9.13;4.05;;;15.60;73.50;;;;;;5031554;28;20488;-77
2021/06/13 04:05:09;;;;;;;11.25;4.70;;;15.60;73.50;;;;;;5032334;28;20079;-75
2021/06/13 04:07:41;;;;;;;8.65;4.05;;;15.60;73.40;;;;;;5030122;28;20083;-76
2021/06/13 04:10:07;;;;;;;7.43;3.83;;;15.60;73.40;;;;;;5031793;28;20025;-76
2021/06/13 04:12:34;;;;;;;10.35;4.18;;;15.60;73.40;;;;;;5031159;28;20421;-75
2021/06/13 04:15:00;;;;;;;9.00;3.90;;;15.60;73.50;;;;;;5032211;28;20029;-76
2021/06/13 04:17:27;;;;;;;9.13;3.45;;;15.60;73.60;;;;;;5031310;28;20029;-76
2021/06/13 04:19:54;;;;;;;9.10;3.33;;;15.60;73.70;;;;;;5032000;28;20024;-76
2021/06/13 04:22:21;;;;;;;9.45;4.03;;;15.60;73.60;;;;;;5031901;28;20060;-76
2021/06/13 04:24:51;;;;;;;9.38;3.97;;;15.60;73.70;;;;;;5029999;28;20025;-75
2021/06/13 04:27:27;;;;;;;9.53;4.00;;;15.60;73.80;;;;;;5032040;28;20021;-76
2021/06/13 04:29:59;;;;;;;14.75;4.38;;;15.60;73.80;;;;;;5032312;28;20022;-76
2021/06/13 04:32:25;;;;;;;11.07;3.63;;;15.70;73.80;;;;;;5031907;28;20097;-76
2021/06/13 04:34:51;;;;;;;8.43;3.75;;;15.60;73.90;;;;;;5032001;28;20227;-75
2021/06/13 04:37:17;;;;;;;10.52;5.07;;;15.70;74.00;;;;;;5031390;28;20489;-75
2021/06/13 04:39:43;;;;;;;8.05;4.07;;;15.70;74.00;;;;;;5029468;28;20052;-75
2021/06/13 04:42:10;;;;;;;8.45;3.83;;;15.70;74.00;;;;;;5030428;28;20113;-76
2021/06/13 04:44:37;;;;;;;8.15;3.65;;;15.80;74.00;;;;;;5031089;28;20103;-76
2021/06/13 04:47:06;;;;;;;10.05;4.18;;;15.70;73.90;;;;;;5032405;28;20469;-76
2021/06/13 04:49:32;;;;;;;8.65;3.90;;;15.70;74.00;;;;;;5035069;28;20026;-75
2021/06/13 04:51:59;;;;;;;8.68;3.75;;;15.70;74.00;;;;;;5035303;28;20034;-75
2021/06/13 04:54:29;;;;;;;7.72;3.67;;;15.70;74.70;;;;;;5035063;28;20393;-76
2021/06/13 04:56:54;;;;;;;9.02;3.85;;;15.70;74.00;;;;;;5017876;28;20029;-75
2021/06/13 04:59:20;;;;;;;12.23;3.97;;;15.60;74.00;;;;;;5035629;28;20028;-76
2021/06/13 05:01:46;;;;;;;8.50;3.85;;;15.60;74.20;;;;;;5035202;28;20097;-76
2021/06/13 05:04:12;;;;;;;11.23;4.22;;;15.70;74.10;;;;;;5035365;28;20061;-76
2021/06/13 05:06:42;;;;;;;8.70;3.53;;;15.80;73.90;;;;;;5034983;28;20373;-76
2021/06/13 05:09:09;;;;;;;11.55;4.43;;;15.90;73.90;;;;;;5035409;28;20037;-76
2021/06/13 05:11:35;;;;;;;10.57;4.47;;;15.90;73.80;;;;;;5034687;28;20025;-76
2021/06/13 05:14:01;;;;;;;10.15;3.70;;;15.90;73.80;;;;;;5033814;28;20028;-76
2021/06/13 05:16:26;;;;;;;14.50;4.13;;;15.90;73.80;;;;;;5033867;28;20109;-75
2021/06/13 05:18:52;;;;;;;9.27;3.17;;;15.80;73.90;;;;;;5034032;28;20026;-76
2021/06/13 05:21:18;;;;;;;10.05;4.30;;;15.80;74.00;;;;;;5034828;28;20079;-76
2021/06/13 05:23:43;;;;;;;11.55;3.45;;;15.90;74.10;;;;;;5034664;28;20025;-76
2021/06/13 05:26:09;;;;;;;9.13;3.13;;;15.90;74.00;;;;;;5035256;28;20030;-75
2021/06/13 05:28:35;;;;;;;7.45;3.53;;;15.90;74.00;;;;;;5034418;28;20013;-76
2021/06/13 05:31:01;;;;;;;12.27;3.90;;;15.90;73.90;;;;;;5033366;28;20017;-76
2021/06/13 05:33:26;;;;;;;8.15;3.10;;;15.90;73.90;;;;;;5034918;28;20036;-76
2021/06/13 05:35:52;;;;;;;8.25;3.42;;;15.90;73.80;;;;;;5032836;28;20025;-76
2021/06/13 05:38:19;;;;;;;7.95;2.63;;;16.00;73.90;;;;;;5033684;28;20473;-75
2021/06/13 05:40:45;;;;;;;10.43;3.00;;;16.00;73.80;;;;;;5034335;28;20120;-76
2021/06/13 05:43:11;;;;;;;12.40;3.95;;;16.00;73.80;;;;;;5033469;28;20322;-76
2021/06/13 05:45:38;;;;;;;13.10;3.22;;;16.00;73.70;;;;;;5032820;28;20029;-75
2021/06/13 05:48:04;;;;;;;7.15;2.78;;;16.00;73.70;;;;;;5034654;28;20049;-75
2021/06/13 05:50:31;;;;;;;7.70;3.05;;;16.10;73.60;;;;;;5034364;28;20025;-75
2021/06/13 05:52:57;;;;;;;6.60;2.33;;;16.10;73.50;;;;;;5034707;28;20026;-76
2021/06/13 05:55:23;;;;;;;8.15;3.20;;;16.10;73.30;;;;;;5033215;28;20025;-76
2021/06/13 05:57:49;;;;;;;7.30;2.72;;;16.20;73.20;;;;;;5033436;28;20029;-75
2021/06/13 06:00:21;;;;;;;6.43;2.88;;;16.30;73.20;;;;;;5034627;28;20026;-76
2021/06/13 06:02:47;;;;;;;7.72;2.42;;;16.30;73.00;;;;;;5033738;28;20032;-76
2021/06/13 06:05:15;;;;;;;6.78;2.40;;;16.30;72.90;;;;;;5033159;28;20122;-76
2021/06/13 06:07:41;;;;;;;4.25;2.40;;;16.30;72.70;;;;;;5032368;28;20021;-76
2021/06/13 06:10:08;;;;;;;7.00;2.80;;;16.40;72.60;;;;;;5034561;28;20105;-76
2021/06/13 06:12:35;;;;;;;7.82;2.72;;;16.40;72.20;;;;;;5032300;28;20032;-76
2021/06/13 06:15:01;;;;;;;8.52;3.00;;;16.40;72.00;;;;;;5034053;28;20033;-76
2021/06/13 06:17:27;;;;;;;6.50;2.60;;;16.40;71.90;;;;;;5033815;28;20396;-76
2021/06/13 06:19:53;;;;;;;4.20;2.13;;;16.50;71.70;;;;;;5033149;28;20079;-75
2021/06/13 06:22:18;;;;;;;7.88;2.78;;;16.50;71.30;;;;;;5033963;28;20117;-76
2021/06/13 06:24:45;;;;;;;6.68;2.38;;;16.50;71.20;;;;;;5033395;28;20436;-75
2021/06/13 06:27:11;;;;;;;5.50;2.38;;;16.50;71.10;;;;;;5033593;28;20421;-76
2021/06/13 06:29:36;;;;;;;6.55;3.05;;;16.50;71.10;;;;;;5032901;28;20025;-76
2021/06/13 06:32:02;;;;;;;4.82;2.00;;;16.60;71.10;;;;;;5033802;28;20048;-75
2021/06/13 06:34:28;;;;;;;6.80;2.60;;;16.60;70.70;;;;;;5033704;28;20501;-76
2021/06/13 06:36:54;;;;;;;5.30;2.90;;;16.60;70.40;;;;;;5033108;28;20505;-76
2021/06/13 06:39:19;;;;;;;6.50;2.17;;;16.60;70.30;;;;;;5031855;28;20056;-75
2021/06/13 06:41:45;;;;;;;6.10;2.45;;;16.60;70.00;;;;;;5032995;28;20044;-75
2021/06/13 06:44:11;;;;;;;7.28;2.53;;;16.70;70.10;;;;;;5031875;28;20025;-75
2021/06/13 06:46:38;;;;;;;5.35;2.55;;;16.70;70.00;;;;;;5033085;28;20075;-77
2021/06/13 06:49:04;;;;;;;5.10;3.08;;;16.80;69.80;;;;;;5033836;28;20476;-76
2021/06/13 06:51:31;;;;;;;5.53;2.58;;;16.80;69.60;;;;;;5033629;28;20029;-76
2021/06/13 06:53:58;;;;;;;5.20;2.10;;;16.80;69.40;;;;;;5031338;28;20112;-75
2021/06/13 06:56:25;;;;;;;7.20;2.20;;;16.90;69.20;;;;;;5032060;28;20022;-76
2021/06/13 06:58:51;;;;;;;4.70;2.03;;;16.90;69.00;;;;;;5032454;28;20029;-76
2021/06/13 07:01:17;;;;;;;4.68;2.15;;;16.90;68.10;;;;;;5032884;28;20076;-76
2021/06/13 07:03:42;;;;;;;5.82;2.10;;;16.90;67.90;;;;;;5030587;28;20029;-76
2021/06/13 07:06:08;;;;;;;7.00;2.40;;;17.00;67.80;;;;;;5033286;28;20018;-75
2021/06/13 07:08:34;;;;;;;8.18;2.40;;;17.10;67.80;;;;;;5032341;28;20021;-75
2021/06/13 07:10:59;;;;;;;4.60;1.90;;;17.10;67.60;;;;;;5031797;28;20105;-76
2021/06/13 07:13:25;;;;;;;5.95;2.35;;;17.20;67.50;;;;;;5033031;28;20163;-75
2021/06/13 07:15:52;;;;;;;7.00;2.35;;;17.30;67.50;;;;;;5032276;28;20052;-77
2021/06/13 07:18:17;;;;;;;3.50;1.85;;;17.40;67.40;;;;;;5032616;28;20079;-75
2021/06/13 07:20:43;;;;;;;7.45;2.42;;;17.40;67.00;;;;;;5030814;28;20025;-76
2021/06/13 07:23:09;;;;;;;4.63;2.47;;;17.50;66.60;;;;;;5031505;28;20033;-75
2021/06/13 07:25:34;;;;;;;5.53;2.03;;;17.50;66.40;;;;;;5032431;28;20025;-76
2021/06/13 07:28:00;;;;;;;5.22;2.08;;;17.50;66.20;;;;;;5032156;28;20081;-76
2021/06/13 07:30:26;;;;;;;11.10;2.70;;;17.50;66.20;;;;;;5031349;28;20475;-76
2021/06/13 07:32:53;;;;;;;8.40;2.25;;;17.50;66.20;;;;;;5031975;28;20100;-76
2021/06/13 07:35:19;;;;;;;4.18;2.28;;;17.60;66.00;;;;;;5032471;28;20068;-77
2021/06/13 07:37:46;;;;;;;5.45;2.42;;;17.50;65.80;;;;;;5031951;28;20477;-76
2021/06/13 07:40:14;;;;;;;6.22;2.17;;;17.50;66.10;;;;;;5032137;28;20049;-75
2021/06/13 07:42:41;;;;;;;5.15;2.30;;;17.50;66.30;;;;;;5032156;28;20045;-77
2021/06/13 07:45:09;;;;;;;7.05;2.30;;;17.50;66.10;;;;;;5031103;28;20041;-75
2021/06/13 07:47:35;;;;;;;10.18;2.17;;;17.40;65.60;;;;;;5031077;28;20017;-76
2021/06/13 07:50:02;;;;;;;6.05;2.50;;;17.40;65.30;;;;;;5031785;28;20040;-75
2021/06/13 07:52:27;;;;;;;7.38;3.05;;;17.40;65.30;;;;;;5031012;28;20025;-76
2021/06/13 07:54:53;;;;;;;5.38;2.63;;;17.40;65.30;;;;;;5031646;28;20033;-76
2021/06/13 07:57:19;;;;;;;8.50;2.67;;;17.40;65.20;;;;;;5032144;28;20053;-76
2021/06/13 07:59:46;;;;;;;8.63;2.63;;;17.40;65.10;;;;;;5030203;28;20065;-75
2021/06/13 08:02:12;;;;;;;7.82;2.38;;;17.40;65.10;;;;;;5032201;28;20017;-76
2021/06/13 08:04:39;;;;;;;6.88;2.33;;;17.40;64.70;;;;;;5030912;28;20018;-75
2021/06/13 08:07:05;;;;;;;5.65;2.50;;;17.40;64.70;;;;;;5031498;28;20030;-75
2021/06/13 08:09:31;;;;;;;8.85;2.50;;;17.50;64.30;;;;;;5032139;28;20108;-76
2021/06/13 08:11:57;;;;;;;5.75;2.28;;;17.50;63.70;;;;;;5030197;28;20021;-76
2021/06/13 08:14:22;;;;;;;6.68;2.40;;;17.50;63.40;;;;;;5030499;28;20041;-76
2021/06/13 08:16:48;;;;;;;7.18;2.22;;;17.50;63.30;;;;;;5031059;28;20037;-76
2021/06/13 08:19:14;;;;;;;6.45;2.33;;;17.60;63.40;;;;;;5031942;28;20395;-76
2021/06/13 08:21:40;;;;;;;7.00;2.60;;;17.60;63.30;;;;;;5031895;28;20022;-75
2021/06/13 08:24:06;;;;;;;4.43;2.10;;;17.60;62.90;;;;;;5030928;28;20033;-76
2021/06/13 08:26:32;;;;;;;5.97;2.58;;;17.60;62.60;;;;;;5031864;28;20143;-76
2021/06/13 08:29:01;;;;;;;5.57;2.20;;;17.70;62.40;;;;;;5029933;28;20025;-75
2021/06/13 08:31:27;;;;;;;4.07;2.00;;;17.70;62.00;;;;;;5032172;28;20021;-76
2021/06/13 08:33:54;;;;;;;6.47;2.28;;;17.70;61.90;;;;;;5031143;28;20025;-76
2021/06/13 08:36:19;;;;;;;5.47;2.22;;;17.80;61.50;;;;;;5030504;28;20075;-76
2021/06/13 08:38:46;;;;;;;4.63;2.30;;;17.90;60.90;;;;;;5031207;28;20033;-77
2021/06/13 08:41:12;;;;;;;6.43;2.28;;;17.80;60.90;;;;;;5030383;28;20401;-76
2021/06/13 08:43:38;;;;;;;5.53;2.53;;;17.80;60.70;;;;;;5030242;28;20025;-76
2021/06/13 08:46:05;;;;;;;6.80;2.63;;;17.90;61.00;;;;;;5031212;28;20347;-75
2021/06/13 08:48:32;;;;;;;7.53;2.13;;;18.00;60.90;;;;;;5031850;28;20053;-76
2021/06/13 08:50:59;;;;;;;6.57;2.28;;;18.00;60.80;;;;;;5029668;28;20026;-76
2021/06/13 08:53:25;;;;;;;7.70;2.53;;;18.00;61.00;;;;;;5031677;28;20033;-75
2021/06/13 08:55:52;;;;;;;5.90;2.25;;;18.00;60.60;;;;;;5030986;28;20058;-75
2021/06/13 08:58:18;;;;;;;5.20;1.77;;;18.10;60.30;;;;;;5030255;28;20026;-75
2021/06/13 09:00:44;;;;;;;8.55;2.53;;;18.10;60.00;;;;;;5031237;28;20493;-77
2021/06/13 09:03:10;;;;;;;6.03;2.30;;;18.10;60.00;;;;;;5031051;28;20029;-75
2021/06/13 09:05:36;;;;;;;5.43;2.40;;;18.20;60.00;;;;;;5031579;28;20029;-76
2021/06/13 09:08:22;;;;;;;7.00;2.50;;;18.30;60.30;;;;;;5029580;28;20460;-75
2021/06/13 09:10:47;;;;;;;5.50;2.30;;;18.40;61.00;;;;;;5030070;28;20037;-76
2021/06/13 09:13:21;;;;;;;5.75;2.33;;;18.50;60.40;;;;;;5030086;28;20025;-76
2021/06/13 09:15:48;;;;;;;6.40;2.40;;;18.50;60.30;;;;;;5030995;28;20021;-77
2021/06/13 09:18:41;;;;;;;5.00;2.17;;;18.60;60.50;;;;;;5031420;28;20025;-76
2021/06/13 09:21:11;;;;;;;4.60;2.28;;;18.60;60.50;;;;;;5030864;28;20025;-74
2021/06/13 09:23:38;;;;;;;6.93;2.80;;;18.70;60.10;;;;;;5031459;28;20021;-76
2021/06/13 09:26:12;;;;;;;7.38;2.63;;;18.70;59.20;;;;;;5029342;28;20760;-76
2021/06/13 09:28:43;;;;;;;6.97;2.47;;;18.70;59.50;;;;;;5030130;28;20052;-75
2021/06/13 09:31:18;;;;;;;6.72;2.63;;;18.70;59.60;;;;;;5030809;28;20033;-75
2021/06/13 09:33:45;;;;;;;5.60;2.58;;;18.70;59.50;;;;;;5034114;28;20056;-76
2021/06/13 09:36:15;;;;;;;6.93;2.20;;;18.70;59.40;;;;;;5033828;28;20033;-75
2021/06/13 09:38:46;;;;;;;5.05;2.42;;;18.70;59.50;;;;;;5033443;28;20179;-74
2021/06/13 09:41:17;;;;;;;;;;;18.70;59.30;;;;;;5034675;28;20045;-76
2021/06/13 09:43:54;;;;;;;7.82;2.53;;;18.80;59.70;;;;;;5034780;28;19905;-75
2021/06/13 09:46:21;;;;;;;4.60;2.15;;;18.90;59.40;;;;;;5033316;28;20033;-75
2021/06/13 09:48:50;;;;;;;5.78;2.30;;;18.90;59.40;;;;;;5034644;28;20433;-75
2021/06/13 09:51:32;;;;;;;11.77;2.95;;;18.90;59.60;;;;;;5034618;28;20022;-76
2021/06/13 09:53:59;;;;;;;5.75;2.70;;;19.00;59.70;;;;;;5032625;28;20029;-75
2021/06/13 09:56:33;;;;;;;7.80;2.33;;;19.00;59.40;;;;;;5034525;28;20029;-76
2021/06/13 09:59:06;;;;;;;4.68;2.50;;;19.00;59.10;;;;;;5032520;28;20117;-75
2021/06/13 10:01:38;;;;;;;5.22;2.72;;;19.00;59.20;;;;;;5033219;28;20025;-76
2021/06/13 10:04:06;;;;;;;7.40;2.50;;;19.10;59.20;;;;;;5032553;28;20112;-75
2021/06/13 10:06:35;;;;;;;7.07;2.60;;;19.10;59.20;;;;;;5032981;28;20021;-75
2021/06/13 10:09:02;;;;;;;6.82;2.53;;;19.10;58.60;;;;;;5033569;28;20468;-75
2021/06/13 10:11:27;;;;;;;7.53;2.47;;;19.10;58.70;;;;;;5032897;28;20458;-76
2021/06/13 10:14:03;;;;;;;6.15;2.40;;;19.20;58.80;;;;;;5033584;28;20028;-76
2021/06/13 10:16:35;;;;;;;7.43;2.40;;;19.30;58.10;;;;;;5033939;28;20441;-76
2021/06/13 10:19:12;;;;;;;5.13;2.15;;;19.30;57.90;;;;;;5032010;28;20022;-74
2021/06/13 10:21:43;;;;;;;5.45;2.58;;;19.30;57.60;;;;;;5034057;28;20053;-75
2021/06/13 10:24:14;;;;;;;5.50;2.47;;;19.40;57.40;;;;;;5033421;28;20025;-74
2021/06/13 10:26:41;;;;;;;;;;;19.40;57.40;;;;;;5034087;28;20108;-76
2021/06/13 10:29:07;;;;;;;6.78;2.78;;;19.40;57.60;;;;;;5031921;28;20384;-75
2021/06/13 10:31:34;;;;;;;7.22;2.55;;;19.40;57.50;;;;;;5033937;28;20053;-76
2021/06/13 10:34:00;;;;;;;20.42;3.47;;;19.40;57.40;;;;;;5033331;28;20022;-77
2021/06/13 10:36:27;;;;;;;8.25;2.47;;;19.40;57.00;;;;;;5032783;28;20052;-76
2021/06/13 10:38:53;;;;;;;7.93;2.53;;;19.50;57.20;;;;;;5033587;28;20026;-80
2021/06/13 10:41:19;;;;;;;5.43;2.72;;;19.60;57.10;;;;;;5032172;28;20148;-76
2021/06/13 10:43:45;;;;;;;9.50;2.67;;;19.60;56.80;;;;;;5031044;28;20553;-78
2021/06/13 10:46:25;;;;;;;9.05;2.63;;;19.70;56.60;;;;;;5031535;28;20053;-77
2021/06/13 10:48:52;;;;;;;6.50;2.95;;;19.80;56.40;;;;;;5032283;28;20044;-76
2021/06/13 10:51:44;;;;;;;8.20;2.47;;;19.90;56.10;;;;;;5031767;28;20018;-77
2021/06/13 10:54:21;;;;;;;3.58;1.85;;;19.90;55.60;;;;;;5032865;28;20026;-77
2021/06/13 10:56:54;;;;;;;5.43;2.45;;;20.00;55.40;;;;;;5031775;28;20143;-77
2021/06/13 10:59:21;;;;;;;5.97;2.60;;;20.10;55.00;;;;;;5031654;28;20025;-77
2021/06/13 11:01:58;;;;;;;5.25;2.58;;;20.10;55.00;;;;;;5031901;28;20474;-77
2021/06/13 11:04:59;;;;;;;4.82;2.30;;;20.20;54.70;;;;;;5033213;28;20030;-78
2021/06/13 11:07:28;;;;;;;8.10;2.28;;;20.30;54.70;;;;;;5033206;28;20025;-76
2021/06/13 11:10:06;;;;;;;6.28;2.63;;;20.40;54.20;;;;;;5033133;28;20045;-75
2021/06/13 11:12:45;;;;;;;3.83;1.92;;;20.60;53.50;;;;;;5033389;28;20026;-77
2021/06/13 11:15:11;;;;;;;8.90;2.95;;;20.70;53.30;;;;;;5032498;28;20030;-76
2021/06/13 11:17:54;;;;;;;5.15;2.45;;;20.90;53.40;;;;;;5031701;28;20133;-77
2021/06/13 11:20:36;;;;;;;5.70;2.25;;;21.00;52.30;;;;;;5032442;28;20449;-76
2021/06/13 11:23:07;;;;;;;10.45;2.35;;;21.10;51.80;;;;;;5030990;28;20381;-77
2021/06/13 11:25:36;;;;;;;13.20;2.67;;;21.30;51.80;;;;;;5033206;28;20037;-77
2021/06/13 11:28:14;;;;;;;6.40;2.38;;;21.50;51.70;;;;;;5032148;28;20453;-76
2021/06/13 11:31:00;;;;;;;6.28;2.30;;;21.80;51.60;;;;;;5031097;28;20075;-76
2021/06/13 11:33:34;;;;;;;4.93;2.10;;;22.00;50.70;;;;;;5032992;28;20519;-77
2021/06/13 11:36:23;;;;;;;5.55;2.25;;;22.10;50.20;;;;;;5031930;28;20036;-76
2021/06/13 11:39:13;;;;;;;5.05;1.95;;;22.30;50.00;;;;;;5031122;28;20037;-75
2021/06/13 11:41:42;;;;;;;5.25;2.28;;;22.40;49.90;;;;;;5031743;28;20104;-77
2021/06/13 11:44:19;;;;;;;5.70;2.17;;;22.60;48.80;;;;;;5031652;28;20347;-76
2021/06/13 11:46:52;;;;;;;3.40;1.98;;;22.80;48.80;;;;;;5031007;28;20117;-77
2021/06/13 11:49:41;;;;;;;5.40;2.75;;;23.00;49.10;;;;;;5041155;28;20026;-78
2021/06/13 11:52:07;;;;;;;7.43;2.90;;;23.20;48.30;;;;;;5033941;28;20159;-77
2021/06/13 11:54:36;;;;;;;6.03;2.63;;;23.40;47.60;;;;;;5036528;28;20452;-78
2021/06/13 11:57:14;;;;;;;6.32;2.65;;;23.60;46.90;;;;;;5050106;28;20473;-76
2021/06/13 11:59:41;;;;;;;5.72;1.98;;;23.60;45.50;;;;;;5030868;28;20029;-76
2021/06/13 12:02:11;;;;;;;4.38;1.92;;;23.70;45.70;;;;;;5031813;28;20033;-76
2021/06/13 12:04:37;;;;;;;4.30;1.80;;;23.80;45.70;;;;;;5031156;28;20052;-78
2021/06/13 12:07:08;;;;;;;4.65;2.10;;;24.00;45.90;;;;;;5032107;28;20057;-78
2021/06/13 12:09:34;;;;;;;4.95;1.92;;;24.20;45.30;;;;;;5032920;28;20032;-77
2021/06/13 12:12:02;;;;;;;5.28;2.50;;;24.20;45.10;;;;;;5030670;28;20044;-80
2021/06/13 12:14:39;;;;;;;6.07;2.53;;;24.40;44.80;;;;;;5031841;28;20025;-77
2021/06/13 12:17:07;;;;;;;6.50;2.35;;;24.50;44.50;;;;;;5031650;28;20048;-77
2021/06/13 12:19:36;;;;;;;8.27;2.03;;;24.50;44.60;;;;;;5031903;28;20465;-76
2021/06/13 12:27:38;;;;;;;5.40;2.35;;;24.90;43.90;;;;;;5031931;28;20032;-78
2021/06/13 12:30:18;;;;;;;6.75;2.03;;;25.00;43.40;;;;;;5031475;28;20037;-77
2021/06/13 12:33:00;;;;;;;4.45;2.05;;;25.00;42.70;;;;;;5031969;28;20014;-78
2021/06/13 12:35:28;;;;;;;4.65;2.00;;;24.90;42.90;;;;;;5031283;28;20025;-77
2021/06/13 12:38:06;;;;;;;7.00;2.30;;;25.00;42.90;;;;;;5031751;28;20040;-78
2021/06/13 12:40:39;;;;;;;4.30;2.13;;;25.00;42.30;;;;;;5031689;28;20045;-76
2021/06/13 12:43:05;;;;;;;6.65;2.15;;;25.10;42.90;;;;;;5029958;28;20036;-76
2021/06/13 12:45:32;;;;;;;3.33;1.98;;;25.30;42.40;;;;;;5031791;28;20030;-77
2021/06/13 12:48:00;;;;;;;3.35;1.70;;;25.40;41.80;;;;;;5030443;28;20021;-78
2021/06/13 12:50:27;;;;;;;3.38;1.58;;;25.50;41.40;;;;;;5029802;28;20024;-77
2021/06/13 12:52:56;;;;;;;6.00;1.85;;;25.60;42.20;;;;;;5030074;28;20083;-77
2021/06/13 12:55:23;;;;;;;6.57;2.50;;;25.80;41.20;;;;;;5029707;28;20029;-77
2021/06/13 12:57:52;;;;;;;6.03;2.10;;;26.00;41.10;;;;;;5031539;28;20248;-77
2021/06/13 13:00:18;;;;;;;5.50;1.90;;;26.20;40.90;;;;;;5029938;28;20036;-76